Palmyra, Michigan
Current Conditions -  °F | °C
As of 10:53 PM on Thursday 18 Dec 2014 (Local Time) from KADG Reporting Station
Overcast Overcast  
Wind Chill: 22°   Ceiling: 1200
Heat Index: 29°   Visibility: 9mi
Dew Point: 26°   Wind: 7mph
Humidity: 89%   Direction: 300°WNW
Pressure: 30.2"   Gusts: NA
Location:  41.86°N, 83.94°W
Report Text: KADG 190353Z AUTO 30006KT 9SM BKN012 OVC033 M02/M03 A3020 RMK AO2 SLP239 T10171033 $
Loading
Personal Weather Stations






























Interactive Weather Map New forecast layout! Learn more

10-Day Weather Forecast

Advertisements
Track Severe Weather on mobile